createdAt,value
2019-05-03T00:02:13.200Z,95681.74
2019-05-03T00:04:44.501Z,95682.75
2019-05-03T00:07:14.130Z,95686.93
2019-05-03T00:09:43.725Z,95687.20
2019-05-03T00:12:13.789Z,95677.88
2019-05-03T00:14:45.128Z,95668.47
2019-05-03T00:17:14.796Z,95668.19
2019-05-03T00:19:44.432Z,95658.59
2019-05-03T00:22:14.022Z,95662.80
2019-05-03T00:24:43.759Z,95667.48
2019-05-03T00:27:13.367Z,95675.27
2019-05-03T00:29:43.085Z,95669.95
2019-05-03T00:32:13.022Z,95675.30
2019-05-03T00:34:52.026Z,95669.23
2019-05-03T00:37:25.961Z,95672.95
2019-05-03T00:39:58.038Z,95658.94
2019-05-03T00:42:27.714Z,95658.14
2019-05-03T00:44:57.383Z,95665.08
2019-05-03T00:47:27.030Z,95654.80
2019-05-03T00:49:56.740Z,95657.47
2019-05-03T00:52:26.434Z,95658.98
2019-05-03T00:54:56.172Z,95663.56
2019-05-03T00:57:27.431Z,95665.54
2019-05-03T00:59:57.115Z,95665.22
2019-05-03T01:02:26.830Z,95666.16
2019-05-03T01:04:56.495Z,95658.51
2019-05-03T01:07:26.194Z,95670.09
2019-05-03T01:09:55.791Z,95663.11
2019-05-03T01:12:25.488Z,95665.73
2019-05-03T01:14:56.861Z,95655.20
2019-05-03T01:17:26.520Z,95662.95
2019-05-03T01:19:56.279Z,95663.95
2019-05-03T01:22:25.919Z,95657.53
2019-05-03T01:24:55.527Z,95663.16
2019-05-03T01:27:25.333Z,95665.61
2019-05-03T01:29:54.966Z,95644.27
2019-05-03T01:32:24.610Z,95650.69
2019-05-03T01:34:54.206Z,95653.05
2019-05-03T01:37:23.802Z,95631.88
2019-05-03T01:39:53.426Z,95638.18
2019-05-03T01:42:23.063Z,95636.65
2019-05-03T01:44:52.877Z,95633.22
2019-05-03T01:47:26.901Z,95631.30
2019-05-03T01:49:58.131Z,95629.59
2019-05-03T01:52:32.465Z,95628.76
2019-05-03T01:55:03.343Z,95635.13
2019-05-03T01:57:33.103Z,95635.13
2019-05-03T02:00:03.233Z,95639.72
2019-05-03T02:02:34.492Z,95632.38
2019-05-03T02:05:13.797Z,95642.00
2019-05-03T02:07:43.402Z,95640.05
2019-05-03T02:10:13.520Z,95643.19
2019-05-03T02:12:43.228Z,95647.42
2019-05-03T02:15:13.229Z,95641.14
2019-05-03T02:17:42.834Z,95652.22
2019-05-03T02:20:13.187Z,95652.73
2019-05-03T02:22:42.970Z,95654.07
2019-05-03T02:25:13.355Z,95641.44
2019-05-03T02:27:43.102Z,95652.02
2019-05-03T02:30:14.484Z,95651.80
2019-05-03T02:32:44.418Z,95649.48
2019-05-03T02:35:14.449Z,95650.34
2019-05-03T02:37:46.233Z,95644.63
2019-05-03T02:40:16.241Z,95647.76
2019-05-03T02:42:47.533Z,95639.37
2019-05-03T02:45:18.835Z,95637.58
2019-05-03T02:47:55.294Z,95641.00
2019-05-03T02:50:26.080Z,95644.03
2019-05-03T02:52:55.776Z,95642.52
2019-05-03T02:55:26.288Z,95640.00
2019-05-03T02:57:56.420Z,95639.88
2019-05-03T03:00:56.403Z,95637.03
2019-05-03T03:03:27.722Z,95638.27
2019-05-03T03:06:00.494Z,95637.23
2019-05-03T03:08:36.550Z,95645.39
2019-05-03T03:11:08.568Z,95644.52
2019-05-03T03:13:39.797Z,95650.05
2019-05-03T03:16:11.042Z,95650.62
2019-05-03T03:18:41.916Z,95650.92
2019-05-03T03:21:20.881Z,95652.31
2019-05-03T03:24:07.274Z,95663.98
2019-05-03T03:26:43.192Z,95650.26
2019-05-03T03:29:16.161Z,95666.48
2019-05-03T03:32:02.676Z,95657.36
2019-05-03T03:34:53.298Z,95659.56
2019-05-03T03:37:15.609Z,95671.37
2019-05-03T03:39:46.057Z,95672.91
2019-05-03T03:42:17.667Z,95665.53
2019-05-03T03:44:50.079Z,95662.95
2019-05-03T03:47:21.685Z,95675.65
2019-05-03T03:49:55.297Z,95682.29
2019-05-03T03:52:27.573Z,95670.58
2019-05-03T03:55:01.044Z,95678.08
2019-05-03T03:57:35.648Z,95680.22
2019-05-03T04:00:08.481Z,95695.31
2019-05-03T04:02:39.755Z,95689.72
2019-05-03T04:05:10.301Z,95688.58
2019-05-03T04:07:40.402Z,95689.82
2019-05-03T04:10:10.848Z,95700.00
2019-05-03T04:12:42.224Z,95696.71
2019-05-03T04:15:29.132Z,95692.66
2019-05-03T04:17:58.905Z,95694.44
2019-05-03T04:20:30.500Z,95698.44
2019-05-03T04:23:00.639Z,95699.80
2019-05-03T04:25:30.687Z,95699.54
2019-05-03T04:28:00.448Z,95696.92
2019-05-03T04:30:30.065Z,95696.45
2019-05-03T04:32:59.691Z,95696.27
2019-05-03T04:35:29.282Z,95695.82
2019-05-03T04:37:58.992Z,95700.61
2019-05-03T04:40:28.586Z,95706.51
2019-05-03T04:42:58.225Z,95702.11
2019-05-03T04:45:27.821Z,95711.57
2019-05-03T04:47:57.531Z,95713.56
2019-05-03T04:50:27.128Z,95713.42
2019-05-03T04:52:56.936Z,95724.00
2019-05-03T04:55:27.089Z,95724.38
2019-05-03T04:57:56.750Z,95728.70
2019-05-03T05:00:26.620Z,95732.84
2019-05-03T05:02:56.277Z,95741.48
2019-05-03T05:05:26.478Z,95744.19
2019-05-03T05:07:56.517Z,95745.23
2019-05-03T05:10:26.516Z,95746.41
2019-05-03T05:12:56.158Z,95754.03
2019-05-03T05:15:26.668Z,95758.66
2019-05-03T05:18:05.666Z,95772.38
2019-05-03T05:20:45.271Z,95773.12
2019-05-03T05:23:14.928Z,95779.89
2019-05-03T05:25:55.001Z,95785.86
2019-05-03T05:28:29.155Z,95794.61
2019-05-03T05:30:58.784Z,95787.66
2019-05-03T05:33:28.703Z,95797.80
2019-05-03T05:35:58.289Z,95793.98
2019-05-03T05:38:27.913Z,95798.11
2019-05-03T05:40:57.555Z,95791.45
2019-05-03T05:43:27.216Z,95806.64
2019-05-03T05:45:58.901Z,95801.39
2019-05-03T05:48:29.845Z,95806.58
2019-05-03T05:50:59.453Z,95809.89
2019-05-03T05:53:29.084Z,95810.09
2019-05-03T05:56:12.128Z,95814.08
2019-05-03T05:58:45.046Z,95812.67
2019-05-03T06:01:16.390Z,95831.96
2019-05-03T06:03:45.987Z,95830.00
2019-05-03T06:06:17.258Z,95831.91
2019-05-03T06:08:48.493Z,95828.59
2019-05-03T06:11:17.906Z,95836.48
2019-05-03T06:14:00.978Z,95840.36
2019-05-03T06:16:32.234Z,95837.56
2019-05-03T06:19:09.234Z,95838.48
2019-05-03T06:21:47.653Z,95842.92
2019-05-03T06:24:15.719Z,95847.00
2019-05-03T06:26:49.710Z,95852.61
2019-05-03T06:29:19.295Z,95859.41
2019-05-03T06:32:06.764Z,95853.48
2019-05-03T06:34:36.747Z,95861.79
2019-05-03T06:37:10.746Z,95859.38
2019-05-03T06:39:40.337Z,95861.68
2019-05-03T06:42:14.522Z,95862.62
2019-05-03T06:44:41.307Z,95857.73
2019-05-03T06:47:10.885Z,95856.33
2019-05-03T06:49:44.787Z,95865.20
2019-05-03T06:52:11.883Z,95861.36
2019-05-03T06:54:41.522Z,95866.79
2019-05-03T06:57:14.688Z,95867.17
2019-05-03T06:59:48.232Z,95870.16
2019-05-03T07:02:28.751Z,95864.17
2019-05-03T07:05:00.085Z,95868.93
2019-05-03T07:07:49.526Z,95870.03
2019-05-03T07:10:20.828Z,95868.16
2019-05-03T07:13:01.051Z,95867.85
2019-05-03T07:15:30.892Z,95869.70
2019-05-03T07:18:00.613Z,95863.02
2019-05-03T07:20:32.074Z,95863.33
2019-05-03T07:23:01.928Z,95865.88
2019-05-03T07:25:31.618Z,95863.60
2019-05-03T07:28:01.375Z,95866.30
2019-05-03T07:30:30.970Z,95861.64
2019-05-03T07:33:02.220Z,95862.05
2019-05-03T07:35:31.828Z,95864.26
2019-05-03T07:38:01.454Z,95861.89
2019-05-03T07:40:31.908Z,95859.13
2019-05-03T07:43:01.538Z,95865.28
2019-05-03T07:45:31.136Z,95865.65
2019-05-03T07:48:00.892Z,95864.70
2019-05-03T07:50:33.014Z,95873.66
2019-05-03T07:53:01.799Z,95872.77
2019-05-03T07:55:48.798Z,95875.45
2019-05-03T07:58:25.876Z,95870.91
2019-05-03T08:01:06.173Z,95876.45
2019-05-03T08:03:28.505Z,95880.30
2019-05-03T08:05:58.101Z,95878.69
2019-05-03T08:08:28.000Z,95879.66
2019-05-03T08:10:57.638Z,95879.65
2019-05-03T08:13:27.396Z,95883.89
2019-05-03T08:15:57.026Z,95884.48
2019-05-03T08:18:26.690Z,95876.79
2019-05-03T08:20:56.295Z,95883.20
2019-05-03T08:23:29.947Z,95881.92
2019-05-03T08:25:57.265Z,95876.58
2019-05-03T08:28:26.952Z,95879.22
2019-05-03T08:31:15.074Z,95880.42
2019-05-03T08:34:01.107Z,95878.86
2019-05-03T08:36:32.338Z,95880.61
2019-05-03T08:39:01.937Z,95879.89
2019-05-03T08:41:35.092Z,95877.46
2019-05-03T08:44:05.190Z,95880.16
2019-05-03T08:46:35.611Z,95871.36
2019-05-03T08:49:05.348Z,95871.73
2019-05-03T08:51:35.261Z,95872.33
2019-05-03T08:54:06.018Z,95871.53
2019-05-03T08:56:35.660Z,95868.13
2019-05-03T08:59:05.251Z,95870.28
2019-05-03T09:01:37.729Z,95869.98
2019-05-03T09:04:06.335Z,95871.63
2019-05-03T09:06:36.017Z,95862.56
2019-05-03T09:09:09.558Z,95867.69
2019-05-03T09:11:39.218Z,95869.05
2019-05-03T09:14:10.487Z,95857.45
2019-05-03T09:16:40.079Z,95855.98
2019-05-03T09:19:09.693Z,95854.70
2019-05-03T09:21:39.354Z,95853.77
2019-05-03T09:24:09.457Z,95855.04
2019-05-03T09:26:39.048Z,95862.31
2019-05-03T09:29:08.855Z,95863.03
2019-05-03T09:31:38.996Z,95861.36
2019-05-03T09:34:08.637Z,95858.25
2019-05-03T09:36:38.234Z,95858.06
2019-05-03T09:39:09.236Z,95852.08
2019-05-03T09:41:38.837Z,95851.63
2019-05-03T09:44:08.537Z,95851.58
2019-05-03T09:46:38.197Z,95848.87
2019-05-03T09:49:13.341Z,95845.73
2019-05-03T09:51:39.124Z,95849.21
2019-05-03T09:54:19.119Z,95847.87
2019-05-03T09:56:58.744Z,95849.79
2019-05-03T09:59:29.907Z,95843.53
2019-05-03T10:02:00.073Z,95843.12
2019-05-03T10:04:29.734Z,95842.99
2019-05-03T10:06:59.442Z,95843.32
2019-05-03T10:09:29.108Z,95843.80
2019-05-03T10:11:59.274Z,95847.75
2019-05-03T10:14:28.974Z,95840.05
2019-05-03T10:17:00.250Z,95850.20
2019-05-03T10:19:39.628Z,95851.83
2019-05-03T10:22:01.269Z,95846.37
2019-05-03T10:24:30.934Z,95847.98
2019-05-03T10:27:00.530Z,95851.74
2019-05-03T10:29:30.160Z,95855.27
2019-05-03T10:32:10.180Z,95855.03
2019-05-03T10:34:41.433Z,95860.98
2019-05-03T10:37:15.076Z,95861.23
2019-05-03T10:39:45.512Z,95866.63
2019-05-03T10:42:15.155Z,95868.44
2019-05-03T10:44:44.965Z,95877.05
2019-05-03T10:47:14.753Z,95883.94
2019-05-03T10:49:45.758Z,95886.98
2019-05-03T10:52:16.662Z,95888.14
2019-05-03T10:54:46.251Z,95900.70
2019-05-03T10:57:17.521Z,95892.87
2019-05-03T10:59:47.115Z,95897.45
2019-05-03T11:02:16.587Z,95905.50
2019-05-03T11:04:46.314Z,95917.31
2019-05-03T11:07:15.885Z,95923.51
2019-05-03T11:09:51.531Z,95926.05
2019-05-03T11:12:16.830Z,95926.30
2019-05-03T11:14:46.543Z,95926.89
2019-05-03T11:17:16.512Z,95922.34
2019-05-03T11:19:46.115Z,95927.41
2019-05-03T11:22:15.818Z,95926.56
2019-05-03T11:24:45.606Z,95927.09
2019-05-03T11:27:16.935Z,95931.48
2019-05-03T11:29:46.528Z,95930.25
2019-05-03T11:32:25.478Z,95936.68
2019-05-03T11:35:11.686Z,95930.10
2019-05-03T11:37:42.569Z,95930.84
2019-05-03T11:40:12.670Z,95929.23
2019-05-03T11:42:42.306Z,95922.73
2019-05-03T11:45:12.200Z,95919.41
2019-05-03T11:47:41.842Z,95917.54
2019-05-03T11:50:14.675Z,95907.84
2019-05-03T11:52:46.774Z,95915.33
2019-05-03T11:55:16.090Z,95914.98
2019-05-03T11:57:45.819Z,95914.45
2019-05-03T12:00:17.498Z,95914.09
2019-05-03T12:02:48.775Z,95906.84
2019-05-03T12:05:25.857Z,95905.32
2019-05-03T12:07:55.442Z,95902.21
2019-05-03T12:10:36.585Z,95909.86
2019-05-03T12:13:15.746Z,95914.52
2019-05-03T12:15:45.519Z,95913.38
2019-05-03T12:18:16.315Z,95913.31
2019-05-03T12:20:47.802Z,95921.27
2019-05-03T12:23:18.461Z,95916.70
2019-05-03T12:25:49.007Z,95915.08
2019-05-03T12:28:18.975Z,95918.33
2019-05-03T12:30:48.680Z,95916.02
2019-05-03T12:33:18.298Z,95914.91
2019-05-03T12:35:47.931Z,95909.91
2019-05-03T12:38:17.525Z,95898.47
2019-05-03T12:40:47.185Z,95902.95
2019-05-03T12:43:16.822Z,95895.18
2019-05-03T12:45:46.534Z,95891.06
2019-05-03T12:48:16.181Z,95888.88
2019-05-03T12:50:46.832Z,95877.55
2019-05-03T12:53:16.806Z,95877.93
2019-05-03T12:55:46.440Z,95872.16
2019-05-03T12:58:16.039Z,95868.13
2019-05-03T13:00:48.757Z,95869.06
2019-05-03T13:03:29.210Z,95878.32
2019-05-03T13:05:58.886Z,95870.41
2019-05-03T13:08:40.658Z,95863.61
2019-05-03T13:11:10.630Z,95865.54
2019-05-03T13:13:40.339Z,95858.52
2019-05-03T13:16:11.709Z,95859.89
2019-05-03T13:18:41.307Z,95854.20
2019-05-03T13:21:10.967Z,95850.44
2019-05-03T13:23:40.585Z,95847.15
2019-05-03T13:26:10.179Z,95847.41
2019-05-03T13:28:39.814Z,95838.18
2019-05-03T13:31:09.417Z,95847.56
2019-05-03T13:33:39.088Z,95849.27
2019-05-03T13:36:08.792Z,95846.03
2019-05-03T13:38:38.388Z,95848.92
2019-05-03T13:41:08.051Z,95848.34
2019-05-03T13:43:37.689Z,95842.52
2019-05-03T13:46:07.350Z,95843.77
2019-05-03T13:48:45.575Z,95842.38
2019-05-03T13:51:08.342Z,95844.28
2019-05-03T13:53:37.934Z,95849.55
2019-05-03T13:56:07.639Z,95849.50
2019-05-03T13:58:37.232Z,95849.83
2019-05-03T14:01:07.001Z,95856.59
2019-05-03T14:03:36.766Z,95858.58
2019-05-03T14:06:08.437Z,95865.03
2019-05-03T14:08:37.735Z,95867.72
2019-05-03T14:11:07.397Z,95869.16
2019-05-03T14:13:37.008Z,95870.16
2019-05-03T14:16:07.128Z,95873.84
2019-05-03T14:18:36.922Z,95873.67
2019-05-03T14:21:06.353Z,95878.84
2019-05-03T14:23:53.609Z,95873.23
2019-05-03T14:26:24.562Z,95870.59
2019-05-03T14:28:54.802Z,95871.66
2019-05-03T14:31:25.172Z,95879.03
2019-05-03T14:33:55.868Z,95881.91
2019-05-03T14:36:25.650Z,95894.87
2019-05-03T14:38:55.248Z,95895.28
2019-05-03T14:41:25.516Z,95894.30
2019-05-03T14:43:55.768Z,95897.27
2019-05-03T14:46:32.896Z,95906.77
2019-05-03T14:48:56.877Z,95912.89
2019-05-03T14:51:26.673Z,95911.43
2019-05-03T14:53:57.541Z,95910.58
2019-05-03T14:56:31.542Z,95911.57
2019-05-03T14:59:18.782Z,95914.37
2019-05-03T15:01:50.018Z,95917.33
2019-05-03T15:04:19.654Z,95920.59
2019-05-03T15:06:49.259Z,95922.84
2019-05-03T15:09:19.215Z,95919.26
2019-05-03T15:11:48.879Z,95925.59
2019-05-03T15:14:18.471Z,95925.38
2019-05-03T15:16:48.098Z,95931.17
2019-05-03T15:19:17.736Z,95927.98
2019-05-03T15:21:47.374Z,95928.14
2019-05-03T15:24:16.971Z,95927.62
2019-05-03T15:26:46.814Z,95925.47
2019-05-03T15:29:16.456Z,95930.52
2019-05-03T15:31:46.040Z,95931.31
2019-05-03T15:34:15.669Z,95936.66
2019-05-03T15:36:45.262Z,95940.33
2019-05-03T15:39:15.416Z,95937.43
2019-05-03T15:41:45.089Z,95939.39
2019-05-03T15:44:19.218Z,95938.77
2019-05-03T15:46:50.493Z,95937.61
2019-05-03T15:49:20.159Z,95933.87
2019-05-03T15:51:49.799Z,95929.97
2019-05-03T15:54:19.428Z,95933.97
2019-05-03T15:56:49.023Z,95928.13
2019-05-03T15:59:18.724Z,95932.58
2019-05-03T16:01:48.321Z,95932.47
2019-05-03T16:04:17.949Z,95927.58
2019-05-03T16:06:47.548Z,95922.13
2019-05-03T16:09:17.152Z,95935.20
2019-05-03T16:11:46.789Z,95932.10
2019-05-03T16:14:16.418Z,95934.44
2019-05-03T16:16:46.122Z,95929.89
2019-05-03T16:19:15.715Z,95937.32
2019-05-03T16:21:45.439Z,95933.10
2019-05-03T16:24:15.458Z,95933.25
2019-05-03T16:26:56.045Z,95930.25
2019-05-03T16:29:25.704Z,95918.86
2019-05-03T16:31:55.337Z,95922.78
2019-05-03T16:34:24.933Z,95922.78
2019-05-03T16:36:54.924Z,95922.20
2019-05-03T16:39:26.925Z,95925.58
2019-05-03T16:41:56.019Z,95927.68
2019-05-03T16:44:26.020Z,95930.80
2019-05-03T16:46:55.614Z,95926.87
2019-05-03T16:49:25.257Z,95924.50
2019-05-03T16:51:54.928Z,95922.10
2019-05-03T16:54:25.451Z,95920.56
2019-05-03T16:56:55.140Z,95917.95
2019-05-03T16:59:24.893Z,95914.55
2019-05-03T17:01:55.194Z,95913.09
2019-05-03T17:04:35.362Z,95917.61
2019-05-03T17:07:07.640Z,95925.73
2019-05-03T17:09:39.883Z,95934.84
2019-05-03T17:12:11.143Z,95926.33
2019-05-03T17:14:40.774Z,95929.98
2019-05-03T17:17:10.434Z,95926.33
2019-05-03T17:19:40.066Z,95934.83
2019-05-03T17:22:09.662Z,95933.41
2019-05-03T17:24:39.270Z,95934.00
2019-05-03T17:27:09.044Z,95934.77
2019-05-03T17:29:38.635Z,95933.10
2019-05-03T17:32:10.918Z,95938.78
2019-05-03T17:34:39.694Z,95934.23
2019-05-03T17:37:09.280Z,95934.08
2019-05-03T17:39:56.589Z,95935.85
2019-05-03T17:42:45.227Z,95929.98
2019-05-03T17:45:16.726Z,95934.59
2019-05-03T17:47:46.406Z,95942.12
2019-05-03T17:50:16.084Z,95933.93
2019-05-03T17:53:01.991Z,95942.20
2019-05-03T17:55:35.238Z,95939.07
2019-05-03T17:58:24.288Z,95942.19
2019-05-03T18:01:05.789Z,95941.79
2019-05-03T18:03:37.021Z,95947.07
2019-05-03T18:06:08.344Z,95946.66
2019-05-03T18:08:39.687Z,95946.37
2019-05-03T18:11:11.108Z,95948.34
2019-05-03T18:13:40.742Z,95943.61
2019-05-03T18:16:10.401Z,95948.15
2019-05-03T18:18:40.015Z,95943.09
2019-05-03T18:21:09.650Z,95957.62
2019-05-03T18:23:39.254Z,95956.13
2019-05-03T18:26:10.953Z,95957.52
2019-05-03T18:28:40.348Z,95962.75
2019-05-03T18:31:10.041Z,95969.17
2019-05-03T18:33:39.632Z,95971.53
2019-05-03T18:36:09.257Z,95970.48
2019-05-03T18:38:39.419Z,95971.77
2019-05-03T18:41:10.738Z,95974.69
2019-05-03T18:43:48.135Z,95979.06
2019-05-03T18:46:31.290Z,95981.30
2019-05-03T18:49:00.928Z,95989.95
2019-05-03T18:51:30.522Z,95989.41
2019-05-03T18:54:00.161Z,95996.42
2019-05-03T18:56:29.770Z,95994.77
2019-05-03T18:58:59.413Z,96001.27
2019-05-03T19:01:29.110Z,96003.19
2019-05-03T19:04:00.375Z,96006.31
2019-05-03T19:06:29.967Z,96010.41
2019-05-03T19:09:01.204Z,96011.97
2019-05-03T19:11:32.612Z,96012.31
2019-05-03T19:14:04.676Z,96012.78
2019-05-03T19:16:40.417Z,96011.12
2019-05-03T19:19:11.074Z,96014.45
2019-05-03T19:21:40.739Z,96019.89
2019-05-03T19:24:10.372Z,96022.91
2019-05-03T19:26:39.964Z,96023.70
2019-05-03T19:29:09.574Z,96027.17
2019-05-03T19:31:39.686Z,96021.65
2019-05-03T19:34:09.291Z,96035.41
2019-05-03T19:36:39.071Z,96034.06
2019-05-03T19:39:09.274Z,96033.53
2019-05-03T19:41:38.882Z,96028.63
2019-05-03T19:44:08.479Z,96029.55
2019-05-03T19:46:38.107Z,96038.66
2019-05-03T19:49:07.704Z,96029.47
2019-05-03T19:51:37.331Z,96033.42
2019-05-03T19:54:07.016Z,96033.46
2019-05-03T19:56:36.621Z,96036.50
2019-05-03T19:59:07.958Z,96032.70
2019-05-03T20:01:45.126Z,96034.97
2019-05-03T20:04:17.094Z,96031.27
2019-05-03T20:06:54.503Z,96029.34
2019-05-03T20:09:25.756Z,96038.13
2019-05-03T20:11:55.471Z,96035.08
2019-05-03T20:14:25.793Z,96035.33
2019-05-03T20:16:55.518Z,96029.44
2019-05-03T20:19:25.772Z,96032.87
2019-05-03T20:21:56.651Z,96040.47
2019-05-03T20:24:26.496Z,96037.72
2019-05-03T20:26:56.091Z,96038.76
2019-05-03T20:29:25.688Z,96039.64
2019-05-03T20:31:55.351Z,96038.23
2019-05-03T20:34:25.087Z,96031.83
2019-05-03T20:36:54.921Z,96033.33
2019-05-03T20:39:25.399Z,96032.92
2019-05-03T20:41:55.332Z,96036.50
2019-05-03T20:44:27.200Z,96043.73
2019-05-03T20:46:58.428Z,96034.41
2019-05-03T20:49:28.048Z,96037.30
2019-05-03T20:51:57.661Z,96044.87
2019-05-03T20:54:27.516Z,96044.66
2019-05-03T20:56:57.198Z,96038.80
2019-05-03T20:59:26.833Z,96043.45
2019-05-03T21:01:56.422Z,96044.37
2019-05-03T21:04:27.145Z,96049.68
2019-05-03T21:06:56.753Z,96056.89
2019-05-03T21:09:26.377Z,96057.34
2019-05-03T21:11:56.019Z,96055.05
2019-05-03T21:14:25.611Z,96054.39
2019-05-03T21:16:56.842Z,96057.97
2019-05-03T21:19:35.290Z,96056.17
2019-05-03T21:22:06.703Z,96054.72
2019-05-03T21:24:45.439Z,96053.00
2019-05-03T21:27:15.299Z,96060.77
2019-05-03T21:29:49.631Z,96064.96
2019-05-03T21:32:19.433Z,96064.96
2019-05-03T21:34:49.526Z,96065.63
2019-05-03T21:37:19.158Z,96068.63
2019-05-03T21:39:48.888Z,96073.12
2019-05-03T21:42:18.515Z,96076.55
2019-05-03T21:44:48.110Z,96072.75
2019-05-03T21:47:29.475Z,96073.51
2019-05-03T21:50:00.844Z,96083.12
2019-05-03T21:52:30.434Z,96085.13
2019-05-03T21:55:00.049Z,96085.50
2019-05-03T21:57:29.682Z,96087.11
2019-05-03T21:59:59.279Z,96091.13
2019-05-03T22:02:29.162Z,96090.61
2019-05-03T22:04:58.912Z,96093.69
2019-05-03T22:07:28.541Z,96089.28
2019-05-03T22:09:58.138Z,96089.41
2019-05-03T22:12:27.769Z,96091.00
2019-05-03T22:15:14.980Z,96093.71
2019-05-03T22:17:46.255Z,96093.83
2019-05-03T22:20:24.594Z,96094.01
2019-05-03T22:22:55.946Z,96089.00
2019-05-03T22:25:27.186Z,96095.58
2019-05-03T22:27:56.819Z,96092.36
2019-05-03T22:30:26.917Z,96095.22
2019-05-03T22:32:56.702Z,96099.45
2019-05-03T22:35:26.293Z,96096.45
2019-05-03T22:37:55.963Z,96093.35
2019-05-03T22:40:25.593Z,96089.45
2019-05-03T22:42:55.251Z,96094.42
2019-05-03T22:45:24.847Z,96092.22
2019-05-03T22:47:54.983Z,96086.27
2019-05-03T22:50:25.515Z,96082.70
2019-05-03T22:52:55.336Z,96081.75
2019-05-03T22:55:24.933Z,96082.08
2019-05-03T22:57:54.689Z,96075.75
2019-05-03T23:00:25.160Z,96080.73
2019-05-03T23:02:54.991Z,96080.99
2019-05-03T23:05:24.623Z,96076.03
2019-05-03T23:07:55.289Z,96080.97
2019-05-03T23:10:25.718Z,96073.89
2019-05-03T23:12:55.487Z,96067.50
2019-05-03T23:15:25.187Z,96065.80
2019-05-03T23:17:54.883Z,96068.16
2019-05-03T23:20:38.213Z,96068.21
2019-05-03T23:23:09.452Z,96061.82
2019-05-03T23:25:39.078Z,96062.52
2019-05-03T23:28:08.669Z,96058.20
2019-05-03T23:30:38.311Z,96056.55
2019-05-03T23:33:07.904Z,96056.23
2019-05-03T23:35:37.494Z,96062.73
2019-05-03T23:38:07.106Z,96055.16
2019-05-03T23:40:36.743Z,96057.88
2019-05-03T23:43:06.362Z,96049.71
2019-05-03T23:45:35.972Z,96056.75
2019-05-03T23:48:05.651Z,96050.75
2019-05-03T23:50:35.481Z,96053.67
2019-05-03T23:53:05.154Z,96051.80
2019-05-03T23:55:39.204Z,96051.41
2019-05-03T23:58:08.849Z,96047.41
